sensor_id;sensor_type;location;lat;lon;timestamp;P1;durP1;ratioP1;P2;durP2;ratioP2
48241;SDS011;34041;51.812;4.622;2023-02-22T00:00:56;34.88;;;24.48;;
48241;SDS011;34041;51.812;4.622;2023-02-22T00:04:02;32.88;;;25.48;;
48241;SDS011;34041;51.812;4.622;2023-02-22T00:07:02;31.25;;;22.95;;
48241;SDS011;34041;51.812;4.622;2023-02-22T00:10:02;31.13;;;22.77;;
48241;SDS011;34041;51.812;4.622;2023-02-22T00:13:03;30.05;;;23.17;;
48241;SDS011;34041;51.812;4.622;2023-02-22T00:16:04;33.17;;;23.52;;
48241;SDS011;34041;51.812;4.622;2023-02-22T00:19:05;32.53;;;24.15;;
48241;SDS011;34041;51.812;4.622;2023-02-22T00:22:06;30.98;;;23.08;;
48241;SDS011;34041;51.812;4.622;2023-02-22T00:25:06;31.20;;;22.43;;
48241;SDS011;34041;51.812;4.622;2023-02-22T00:28:06;31.08;;;23.13;;
48241;SDS011;34041;51.812;4.622;2023-02-22T00:31:06;32.35;;;22.35;;
48241;SDS011;34041;51.812;4.622;2023-02-22T00:34:08;32.88;;;24.10;;
48241;SDS011;34041;51.812;4.622;2023-02-22T00:37:09;33.13;;;23.13;;
48241;SDS011;34041;51.812;4.622;2023-02-22T00:40:09;29.35;;;21.48;;
48241;SDS011;34041;51.812;4.622;2023-02-22T00:43:11;30.08;;;22.90;;
48241;SDS011;34041;51.812;4.622;2023-02-22T00:46:12;33.38;;;24.50;;
48241;SDS011;34041;51.812;4.622;2023-02-22T00:49:12;31.73;;;24.17;;
48241;SDS011;34041;51.812;4.622;2023-02-22T00:52:12;28.70;;;22.58;;
48241;SDS011;34041;51.812;4.622;2023-02-22T00:55:20;32.47;;;22.85;;
48241;SDS011;34041;51.812;4.622;2023-02-22T00:58:20;30.55;;;22.23;;
48241;SDS011;34041;51.812;4.622;2023-02-22T01:01:21;32.00;;;24.70;;
48241;SDS011;34041;51.812;4.622;2023-02-22T01:04:23;26.58;;;20.67;;
48241;SDS011;34041;51.812;4.622;2023-02-22T01:07:23;31.48;;;23.38;;
48241;SDS011;34041;51.812;4.622;2023-02-22T01:10:24;28.30;;;23.03;;
48241;SDS011;34041;51.812;4.622;2023-02-22T01:13:25;30.83;;;23.27;;
48241;SDS011;34041;51.812;4.622;2023-02-22T01:16:25;33.55;;;24.63;;
48241;SDS011;34041;51.812;4.622;2023-02-22T01:19:26;27.23;;;22.77;;
48241;SDS011;34041;51.812;4.622;2023-02-22T01:22:26;29.80;;;22.00;;
48241;SDS011;34041;51.812;4.622;2023-02-22T01:25:27;29.73;;;22.33;;
48241;SDS011;34041;51.812;4.622;2023-02-22T01:28:28;30.70;;;21.88;;
48241;SDS011;34041;51.812;4.622;2023-02-22T01:31:28;28.50;;;21.67;;
48241;SDS011;34041;51.812;4.622;2023-02-22T01:34:29;29.27;;;21.50;;
48241;SDS011;34041;51.812;4.622;2023-02-22T01:37:29;29.13;;;20.90;;
48241;SDS011;34041;51.812;4.622;2023-02-22T01:40:31;30.95;;;23.15;;
48241;SDS011;34041;51.812;4.622;2023-02-22T01:43:31;29.13;;;23.73;;
48241;SDS011;34041;51.812;4.622;2023-02-22T01:46:32;28.27;;;21.80;;
48241;SDS011;34041;51.812;4.622;2023-02-22T01:49:41;30.60;;;23.47;;
48241;SDS011;34041;51.812;4.622;2023-02-22T01:52:43;27.67;;;23.45;;
48241;SDS011;34041;51.812;4.622;2023-02-22T01:55:43;30.03;;;22.83;;
48241;SDS011;34041;51.812;4.622;2023-02-22T01:58:45;27.70;;;21.73;;
48241;SDS011;34041;51.812;4.622;2023-02-22T02:01:46;28.25;;;22.55;;
48241;SDS011;34041;51.812;4.622;2023-02-22T02:04:46;29.10;;;22.05;;
48241;SDS011;34041;51.812;4.622;2023-02-22T02:07:47;27.98;;;22.90;;
48241;SDS011;34041;51.812;4.622;2023-02-22T02:10:48;32.20;;;25.33;;
48241;SDS011;34041;51.812;4.622;2023-02-22T02:13:49;28.80;;;22.08;;
48241;SDS011;34041;51.812;4.622;2023-02-22T02:16:51;28.80;;;21.30;;
48241;SDS011;34041;51.812;4.622;2023-02-22T02:20:06;28.48;;;22.83;;
48241;SDS011;34041;51.812;4.622;2023-02-22T02:32:52;26.63;;;21.77;;
48241;SDS011;34041;51.812;4.622;2023-02-22T02:39:40;27.42;;;21.98;;
48241;SDS011;34041;51.812;4.622;2023-02-22T02:42:15;27.98;;;22.95;;
48241;SDS011;34041;51.812;4.622;2023-02-22T02:45:17;27.42;;;20.88;;
48241;SDS011;34041;51.812;4.622;2023-02-22T02:48:20;28.27;;;22.65;;
48241;SDS011;34041;51.812;4.622;2023-02-22T02:51:23;30.20;;;21.90;;
48241;SDS011;34041;51.812;4.622;2023-02-22T02:54:26;29.20;;;23.53;;
48241;SDS011;34041;51.812;4.622;2023-02-22T02:57:26;28.37;;;22.63;;
48241;SDS011;34041;51.812;4.622;2023-02-22T03:00:27;27.52;;;21.85;;
48241;SDS011;34041;51.812;4.622;2023-02-22T03:12:46;30.92;;;23.60;;
48241;SDS011;34041;51.812;4.622;2023-02-22T03:25:09;27.70;;;21.10;;
48241;SDS011;34041;51.812;4.622;2023-02-22T03:28:11;29.88;;;22.80;;
48241;SDS011;34041;51.812;4.622;2023-02-22T03:31:18;30.08;;;22.85;;
48241;SDS011;34041;51.812;4.622;2023-02-22T03:34:22;29.35;;;23.10;;
48241;SDS011;34041;51.812;4.622;2023-02-22T03:37:29;30.77;;;22.20;;
48241;SDS011;34041;51.812;4.622;2023-02-22T03:40:32;32.40;;;23.95;;
48241;SDS011;34041;51.812;4.622;2023-02-22T03:43:36;29.90;;;23.55;;
48241;SDS011;34041;51.812;4.622;2023-02-22T03:46:37;30.42;;;22.95;;
48241;SDS011;34041;51.812;4.622;2023-02-22T03:49:45;31.67;;;23.50;;
48241;SDS011;34041;51.812;4.622;2023-02-22T03:52:47;31.10;;;22.77;;
48241;SDS011;34041;51.812;4.622;2023-02-22T03:55:47;27.80;;;21.65;;
48241;SDS011;34041;51.812;4.622;2023-02-22T03:58:50;28.98;;;22.80;;
48241;SDS011;34041;51.812;4.622;2023-02-22T04:01:51;30.30;;;23.55;;
48241;SDS011;34041;51.812;4.622;2023-02-22T04:04:51;29.85;;;22.10;;
48241;SDS011;34041;51.812;4.622;2023-02-22T04:07:52;31.17;;;22.48;;
48241;SDS011;34041;51.812;4.622;2023-02-22T04:10:52;28.48;;;21.48;;
48241;SDS011;34041;51.812;4.622;2023-02-22T04:13:53;29.00;;;22.00;;
48241;SDS011;34041;51.812;4.622;2023-02-22T04:16:53;31.40;;;22.63;;
48241;SDS011;34041;51.812;4.622;2023-02-22T04:19:54;26.80;;;21.23;;
48241;SDS011;34041;51.812;4.622;2023-02-22T04:22:54;30.00;;;21.00;;
48241;SDS011;34041;51.812;4.622;2023-02-22T04:25:54;30.45;;;22.50;;
48241;SDS011;34041;51.812;4.622;2023-02-22T04:28:55;28.13;;;20.73;;
48241;SDS011;34041;51.812;4.622;2023-02-22T04:31:55;29.63;;;22.98;;
48241;SDS011;34041;51.812;4.622;2023-02-22T04:34:55;27.40;;;20.60;;
48241;SDS011;34041;51.812;4.622;2023-02-22T04:37:55;26.57;;;19.10;;
48241;SDS011;34041;51.812;4.622;2023-02-22T04:40:57;26.33;;;20.05;;
48241;SDS011;34041;51.812;4.622;2023-02-22T04:43:57;30.92;;;21.42;;
48241;SDS011;34041;51.812;4.622;2023-02-22T04:46:57;25.77;;;20.70;;
48241;SDS011;34041;51.812;4.622;2023-02-22T04:49:57;29.17;;;20.23;;
48241;SDS011;34041;51.812;4.622;2023-02-22T04:52:59;28.60;;;20.40;;
48241;SDS011;34041;51.812;4.622;2023-02-22T04:55:59;24.15;;;18.85;;
48241;SDS011;34041;51.812;4.622;2023-02-22T04:59:00;26.52;;;18.95;;
48241;SDS011;34041;51.812;4.622;2023-02-22T05:02:01;26.60;;;20.33;;
48241;SDS011;34041;51.812;4.622;2023-02-22T05:05:01;27.65;;;19.05;;
48241;SDS011;34041;51.812;4.622;2023-02-22T05:08:01;27.05;;;18.95;;
48241;SDS011;34041;51.812;4.622;2023-02-22T05:11:01;25.60;;;18.37;;
48241;SDS011;34041;51.812;4.622;2023-02-22T05:14:01;25.43;;;18.53;;
48241;SDS011;34041;51.812;4.622;2023-02-22T05:17:02;22.73;;;18.17;;
48241;SDS011;34041;51.812;4.622;2023-02-22T05:20:02;27.33;;;21.17;;
48241;SDS011;34041;51.812;4.622;2023-02-22T05:23:03;25.13;;;19.48;;
48241;SDS011;34041;51.812;4.622;2023-02-22T05:26:04;26.95;;;18.65;;
48241;SDS011;34041;51.812;4.622;2023-02-22T05:29:05;23.88;;;18.52;;
48241;SDS011;34041;51.812;4.622;2023-02-22T05:32:05;30.52;;;20.65;;
48241;SDS011;34041;51.812;4.622;2023-02-22T05:35:06;22.73;;;18.33;;
48241;SDS011;34041;51.812;4.622;2023-02-22T05:38:08;27.58;;;18.80;;
48241;SDS011;34041;51.812;4.622;2023-02-22T05:41:10;24.63;;;17.95;;
48241;SDS011;34041;51.812;4.622;2023-02-22T05:44:10;27.17;;;18.17;;
48241;SDS011;34041;51.812;4.622;2023-02-22T05:47:11;29.05;;;17.80;;
48241;SDS011;34041;51.812;4.622;2023-02-22T05:50:11;27.03;;;18.23;;
48241;SDS011;34041;51.812;4.622;2023-02-22T05:53:12;25.40;;;17.42;;
48241;SDS011;34041;51.812;4.622;2023-02-22T05:56:12;23.33;;;18.25;;
48241;SDS011;34041;51.812;4.622;2023-02-22T05:59:12;25.00;;;18.27;;
48241;SDS011;34041;51.812;4.622;2023-02-22T06:02:12;22.63;;;16.83;;
48241;SDS011;34041;51.812;4.622;2023-02-22T06:05:12;22.35;;;16.95;;
48241;SDS011;34041;51.812;4.622;2023-02-22T06:08:13;24.57;;;16.47;;
48241;SDS011;34041;51.812;4.622;2023-02-22T06:11:13;20.87;;;15.87;;
48241;SDS011;34041;51.812;4.622;2023-02-22T06:14:13;22.88;;;16.50;;
48241;SDS011;34041;51.812;4.622;2023-02-22T06:17:14;20.87;;;16.37;;
48241;SDS011;34041;51.812;4.622;2023-02-22T06:20:15;22.45;;;17.08;;
48241;SDS011;34041;51.812;4.622;2023-02-22T06:23:16;20.05;;;16.33;;
48241;SDS011;34041;51.812;4.622;2023-02-22T06:26:17;20.15;;;16.65;;
48241;SDS011;34041;51.812;4.622;2023-02-22T06:29:17;19.48;;;15.02;;
48241;SDS011;34041;51.812;4.622;2023-02-22T06:32:17;20.77;;;15.40;;
48241;SDS011;34041;51.812;4.622;2023-02-22T06:35:18;20.13;;;15.07;;
48241;SDS011;34041;51.812;4.622;2023-02-22T06:38:24;20.30;;;15.65;;
48241;SDS011;34041;51.812;4.622;2023-02-22T06:41:26;19.65;;;15.80;;
48241;SDS011;34041;51.812;4.622;2023-02-22T06:44:26;19.25;;;14.88;;
48241;SDS011;34041;51.812;4.622;2023-02-22T06:47:27;19.17;;;15.55;;
48241;SDS011;34041;51.812;4.622;2023-02-22T06:50:28;19.33;;;15.50;;
48241;SDS011;34041;51.812;4.622;2023-02-22T06:53:28;19.33;;;15.52;;
48241;SDS011;34041;51.812;4.622;2023-02-22T06:56:28;19.37;;;16.70;;
48241;SDS011;34041;51.812;4.622;2023-02-22T06:59:29;17.30;;;14.30;;
48241;SDS011;34041;51.812;4.622;2023-02-22T07:02:29;20.40;;;15.90;;
48241;SDS011;34041;51.812;4.622;2023-02-22T07:05:29;18.23;;;14.07;;
48241;SDS011;34041;51.812;4.622;2023-02-22T07:08:29;17.70;;;14.07;;
48241;SDS011;34041;51.812;4.622;2023-02-22T07:11:30;19.17;;;14.93;;
48241;SDS011;34041;51.812;4.622;2023-02-22T07:14:30;18.42;;;15.13;;
48241;SDS011;34041;51.812;4.622;2023-02-22T07:17:30;18.00;;;15.07;;
48241;SDS011;34041;51.812;4.622;2023-02-22T07:20:31;17.13;;;13.30;;
48241;SDS011;34041;51.812;4.622;2023-02-22T07:23:31;20.27;;;15.32;;
48241;SDS011;34041;51.812;4.622;2023-02-22T07:26:36;20.23;;;16.30;;
48241;SDS011;34041;51.812;4.622;2023-02-22T07:29:37;17.92;;;14.35;;
48241;SDS011;34041;51.812;4.622;2023-02-22T07:32:37;18.27;;;15.33;;
48241;SDS011;34041;51.812;4.622;2023-02-22T07:35:38;18.30;;;15.27;;
48241;SDS011;34041;51.812;4.622;2023-02-22T07:38:43;18.02;;;15.00;;
48241;SDS011;34041;51.812;4.622;2023-02-22T07:41:43;17.27;;;13.68;;
48241;SDS011;34041;51.812;4.622;2023-02-22T07:44:43;18.93;;;15.43;;
48241;SDS011;34041;51.812;4.622;2023-02-22T07:47:47;17.03;;;13.73;;
48241;SDS011;34041;51.812;4.622;2023-02-22T07:50:47;16.00;;;13.57;;
48241;SDS011;34041;51.812;4.622;2023-02-22T07:53:47;19.45;;;14.55;;
48241;SDS011;34041;51.812;4.622;2023-02-22T07:56:48;20.52;;;15.57;;
48241;SDS011;34041;51.812;4.622;2023-02-22T07:59:48;16.80;;;13.35;;
48241;SDS011;34041;51.812;4.622;2023-02-22T08:02:48;16.02;;;13.75;;
48241;SDS011;34041;51.812;4.622;2023-02-22T08:05:50;19.35;;;15.00;;
48241;SDS011;34041;51.812;4.622;2023-02-22T08:08:51;18.20;;;13.02;;
48241;SDS011;34041;51.812;4.622;2023-02-22T08:11:51;17.50;;;13.87;;
48241;SDS011;34041;51.812;4.622;2023-02-22T08:14:51;17.10;;;14.63;;
48241;SDS011;34041;51.812;4.622;2023-02-22T08:17:52;16.80;;;13.95;;
48241;SDS011;34041;51.812;4.622;2023-02-22T08:20:52;17.65;;;13.32;;
48241;SDS011;34041;51.812;4.622;2023-02-22T08:23:52;16.40;;;14.07;;
48241;SDS011;34041;51.812;4.622;2023-02-22T08:26:53;18.25;;;14.57;;
48241;SDS011;34041;51.812;4.622;2023-02-22T08:29:53;18.23;;;14.27;;
48241;SDS011;34041;51.812;4.622;2023-02-22T08:32:54;16.40;;;13.50;;
48241;SDS011;34041;51.812;4.622;2023-02-22T08:35:55;16.20;;;13.15;;
48241;SDS011;34041;51.812;4.622;2023-02-22T08:38:55;15.77;;;12.68;;
48241;SDS011;34041;51.812;4.622;2023-02-22T08:41:55;16.98;;;13.73;;
48241;SDS011;34041;51.812;4.622;2023-02-22T08:44:56;18.48;;;14.35;;
48241;SDS011;34041;51.812;4.622;2023-02-22T08:47:57;16.47;;;13.80;;
48241;SDS011;34041;51.812;4.622;2023-02-22T08:50:57;15.40;;;13.00;;
48241;SDS011;34041;51.812;4.622;2023-02-22T08:53:57;16.83;;;13.90;;
48241;SDS011;34041;51.812;4.622;2023-02-22T08:56:58;17.63;;;14.60;;
48241;SDS011;34041;51.812;4.622;2023-02-22T08:59:58;16.73;;;13.67;;
48241;SDS011;34041;51.812;4.622;2023-02-22T09:02:59;17.05;;;15.15;;
48241;SDS011;34041;51.812;4.622;2023-02-22T09:05:59;17.27;;;13.30;;
48241;SDS011;34041;51.812;4.622;2023-02-22T09:09:00;18.83;;;14.57;;
48241;SDS011;34041;51.812;4.622;2023-02-22T09:12:00;17.60;;;14.82;;
48241;SDS011;34041;51.812;4.622;2023-02-22T09:15:00;17.38;;;14.07;;
48241;SDS011;34041;51.812;4.622;2023-02-22T09:18:01;16.02;;;13.23;;
48241;SDS011;34041;51.812;4.622;2023-02-22T09:21:02;16.85;;;13.63;;
48241;SDS011;34041;51.812;4.622;2023-02-22T09:24:02;16.88;;;14.02;;
48241;SDS011;34041;51.812;4.622;2023-02-22T09:30:20;16.67;;;13.38;;
48241;SDS011;34041;51.812;4.622;2023-02-22T09:33:22;18.42;;;14.07;;
48241;SDS011;34041;51.812;4.622;2023-02-22T09:36:22;17.25;;;13.48;;
48241;SDS011;34041;51.812;4.622;2023-02-22T09:39:23;16.27;;;13.82;;
48241;SDS011;34041;51.812;4.622;2023-02-22T09:42:30;16.38;;;13.60;;
48241;SDS011;34041;51.812;4.622;2023-02-22T09:45:35;17.13;;;12.43;;
48241;SDS011;34041;51.812;4.622;2023-02-22T09:48:55;18.23;;;14.00;;
48241;SDS011;34041;51.812;4.622;2023-02-22T09:51:58;16.63;;;13.85;;
48241;SDS011;34041;51.812;4.622;2023-02-22T09:55:16;18.20;;;14.70;;
48241;SDS011;34041;51.812;4.622;2023-02-22T09:58:21;18.80;;;14.00;;
48241;SDS011;34041;51.812;4.622;2023-02-22T10:04:40;16.50;;;14.52;;
48241;SDS011;34041;51.812;4.622;2023-02-22T10:07:52;17.38;;;14.00;;
48241;SDS011;34041;51.812;4.622;2023-02-22T10:10:55;16.85;;;14.77;;
48241;SDS011;34041;51.812;4.622;2023-02-22T10:14:00;18.10;;;13.98;;
48241;SDS011;34041;51.812;4.622;2023-02-22T10:23:42;18.83;;;13.20;;
48241;SDS011;34041;51.812;4.622;2023-02-22T10:26:44;16.60;;;12.98;;
48241;SDS011;34041;51.812;4.622;2023-02-22T10:29:47;14.88;;;12.82;;
48241;SDS011;34041;51.812;4.622;2023-02-22T10:32:49;16.52;;;13.93;;
48241;SDS011;34041;51.812;4.622;2023-02-22T10:35:51;16.83;;;13.93;;
48241;SDS011;34041;51.812;4.622;2023-02-22T10:38:59;14.75;;;12.95;;
48241;SDS011;34041;51.812;4.622;2023-02-22T10:42:00;15.02;;;12.98;;
48241;SDS011;34041;51.812;4.622;2023-02-22T10:45:05;24.52;;;13.27;;
48241;SDS011;34041;51.812;4.622;2023-02-22T10:48:17;17.45;;;13.82;;
48241;SDS011;34041;51.812;4.622;2023-02-22T10:51:18;15.88;;;12.73;;
48241;SDS011;34041;51.812;4.622;2023-02-22T10:54:21;16.02;;;11.68;;
48241;SDS011;34041;51.812;4.622;2023-02-22T10:57:41;14.70;;;11.93;;
48241;SDS011;34041;51.812;4.622;2023-02-22T11:00:42;14.93;;;11.98;;
48241;SDS011;34041;51.812;4.622;2023-02-22T11:03:43;15.98;;;12.82;;
48241;SDS011;34041;51.812;4.622;2023-02-22T11:06:45;15.98;;;12.57;;
48241;SDS011;34041;51.812;4.622;2023-02-22T11:09:56;15.65;;;12.05;;
48241;SDS011;34041;51.812;4.622;2023-02-22T11:12:57;15.52;;;11.90;;
48241;SDS011;34041;51.812;4.622;2023-02-22T11:15:58;15.93;;;11.53;;
48241;SDS011;34041;51.812;4.622;2023-02-22T11:19:20;14.57;;;11.75;;
48241;SDS011;34041;51.812;4.622;2023-02-22T11:22:27;18.40;;;14.43;;
48241;SDS011;34041;51.812;4.622;2023-02-22T11:25:34;15.65;;;12.77;;
48241;SDS011;34041;51.812;4.622;2023-02-22T11:28:35;13.65;;;11.57;;
48241;SDS011;34041;51.812;4.622;2023-02-22T11:31:40;13.98;;;11.98;;
48241;SDS011;34041;51.812;4.622;2023-02-22T11:34:41;13.80;;;11.00;;
48241;SDS011;34041;51.812;4.622;2023-02-22T11:37:44;16.60;;;12.93;;
48241;SDS011;34041;51.812;4.622;2023-02-22T11:40:44;15.57;;;12.35;;
48241;SDS011;34041;51.812;4.622;2023-02-22T11:43:46;14.55;;;11.40;;
48241;SDS011;34041;51.812;4.622;2023-02-22T11:46:46;20.65;;;12.40;;
48241;SDS011;34041;51.812;4.622;2023-02-22T11:49:47;16.65;;;12.25;;
48241;SDS011;34041;51.812;4.622;2023-02-22T11:52:49;16.27;;;11.80;;
48241;SDS011;34041;51.812;4.622;2023-02-22T11:59:12;14.85;;;11.82;;
48241;SDS011;34041;51.812;4.622;2023-02-22T12:05:50;15.77;;;12.80;;
48241;SDS011;34041;51.812;4.622;2023-02-22T12:09:16;13.50;;;11.07;;
48241;SDS011;34041;51.812;4.622;2023-02-22T12:12:27;14.93;;;12.85;;
48241;SDS011;34041;51.812;4.622;2023-02-22T12:22:26;15.82;;;13.27;;
48241;SDS011;34041;51.812;4.622;2023-02-22T12:25:28;16.45;;;13.25;;
48241;SDS011;34041;51.812;4.622;2023-02-22T12:28:34;15.75;;;12.52;;
48241;SDS011;34041;51.812;4.622;2023-02-22T12:41:58;14.37;;;11.77;;
48241;SDS011;34041;51.812;4.622;2023-02-22T12:44:54;15.88;;;12.38;;
48241;SDS011;34041;51.812;4.622;2023-02-22T12:57:46;15.98;;;12.63;;
48241;SDS011;34041;51.812;4.622;2023-02-22T13:00:53;17.70;;;13.45;;
48241;SDS011;34041;51.812;4.622;2023-02-22T13:03:55;17.65;;;13.18;;
48241;SDS011;34041;51.812;4.622;2023-02-22T13:10:02;14.83;;;12.93;;
48241;SDS011;34041;51.812;4.622;2023-02-22T13:13:13;16.02;;;12.07;;
48241;SDS011;34041;51.812;4.622;2023-02-22T13:25:44;16.17;;;12.45;;
48241;SDS011;34041;51.812;4.622;2023-02-22T13:35:44;16.25;;;12.23;;
48241;SDS011;34041;51.812;4.622;2023-02-22T13:42:03;17.38;;;13.07;;
48241;SDS011;34041;51.812;4.622;2023-02-22T13:48:23;16.55;;;12.63;;
48241;SDS011;34041;51.812;4.622;2023-02-22T13:54:42;17.58;;;13.13;;
48241;SDS011;34041;51.812;4.622;2023-02-22T13:57:45;15.50;;;12.75;;
48241;SDS011;34041;51.812;4.622;2023-02-22T14:00:52;15.30;;;12.18;;
48241;SDS011;34041;51.812;4.622;2023-02-22T14:03:58;16.67;;;13.70;;
48241;SDS011;34041;51.812;4.622;2023-02-22T14:20:36;14.65;;;12.60;;
48241;SDS011;34041;51.812;4.622;2023-02-22T14:23:37;14.68;;;11.88;;
48241;SDS011;34041;51.812;4.622;2023-02-22T14:26:52;15.52;;;13.15;;
48241;SDS011;34041;51.812;4.622;2023-02-22T14:29:53;15.93;;;13.63;;
48241;SDS011;34041;51.812;4.622;2023-02-22T14:32:54;15.52;;;12.63;;
48241;SDS011;34041;51.812;4.622;2023-02-22T14:35:54;15.13;;;13.55;;
48241;SDS011;34041;51.812;4.622;2023-02-22T14:38:56;20.05;;;14.40;;
48241;SDS011;34041;51.812;4.622;2023-02-22T14:48:23;15.97;;;14.40;;
48241;SDS011;34041;51.812;4.622;2023-02-22T14:51:42;18.92;;;15.07;;
48241;SDS011;34041;51.812;4.622;2023-02-22T15:00:52;18.07;;;15.33;;
48241;SDS011;34041;51.812;4.622;2023-02-22T15:03:55;15.85;;;14.07;;
48241;SDS011;34041;51.812;4.622;2023-02-22T15:06:58;16.67;;;14.02;;
48241;SDS011;34041;51.812;4.622;2023-02-22T15:10:20;18.02;;;16.10;;
48241;SDS011;34041;51.812;4.622;2023-02-22T15:13:25;20.08;;;17.42;;
48241;SDS011;34041;51.812;4.622;2023-02-22T15:16:27;19.08;;;15.52;;
48241;SDS011;34041;51.812;4.622;2023-02-22T15:19:31;18.08;;;15.60;;
48241;SDS011;34041;51.812;4.622;2023-02-22T15:22:33;19.90;;;17.80;;
48241;SDS011;34041;51.812;4.622;2023-02-22T15:25:34;18.40;;;16.52;;
48241;SDS011;34041;51.812;4.622;2023-02-22T15:28:36;20.85;;;17.20;;
48241;SDS011;34041;51.812;4.622;2023-02-22T15:31:37;22.25;;;17.35;;
48241;SDS011;34041;51.812;4.622;2023-02-22T15:34:38;19.40;;;17.48;;
48241;SDS011;34041;51.812;4.622;2023-02-22T15:37:38;21.08;;;17.17;;
48241;SDS011;34041;51.812;4.622;2023-02-22T15:40:38;20.40;;;18.20;;
48241;SDS011;34041;51.812;4.622;2023-02-22T15:43:41;20.65;;;18.17;;
48241;SDS011;34041;51.812;4.622;2023-02-22T15:46:42;20.67;;;17.97;;
48241;SDS011;34041;51.812;4.622;2023-02-22T15:49:42;20.55;;;17.67;;
48241;SDS011;34041;51.812;4.622;2023-02-22T15:52:52;22.65;;;19.00;;
48241;SDS011;34041;51.812;4.622;2023-02-22T15:55:56;26.00;;;21.73;;
48241;SDS011;34041;51.812;4.622;2023-02-22T15:58:58;22.98;;;20.45;;
48241;SDS011;34041;51.812;4.622;2023-02-22T16:01:59;22.55;;;20.17;;
48241;SDS011;34041;51.812;4.622;2023-02-22T16:05:01;23.83;;;19.85;;
48241;SDS011;34041;51.812;4.622;2023-02-22T16:08:02;25.10;;;22.23;;
48241;SDS011;34041;51.812;4.622;2023-02-22T16:11:04;24.05;;;21.48;;
48241;SDS011;34041;51.812;4.622;2023-02-22T16:14:38;27.10;;;23.33;;
48241;SDS011;34041;51.812;4.622;2023-02-22T16:17:39;25.20;;;22.60;;
48241;SDS011;34041;51.812;4.622;2023-02-22T16:20:40;26.27;;;23.25;;
48241;SDS011;34041;51.812;4.622;2023-02-22T16:26:59;24.77;;;22.17;;
48241;SDS011;34041;51.812;4.622;2023-02-22T16:30:22;34.10;;;25.35;;
48241;SDS011;34041;51.812;4.622;2023-02-22T16:33:20;30.92;;;25.10;;
48241;SDS011;34041;51.812;4.622;2023-02-22T16:36:22;28.40;;;24.43;;
48241;SDS011;34041;51.812;4.622;2023-02-22T16:39:26;33.13;;;26.50;;
48241;SDS011;34041;51.812;4.622;2023-02-22T16:42:26;31.13;;;27.43;;
48241;SDS011;34041;51.812;4.622;2023-02-22T16:45:26;32.50;;;25.93;;
48241;SDS011;34041;51.812;4.622;2023-02-22T16:48:28;29.48;;;26.27;;
48241;SDS011;34041;51.812;4.622;2023-02-22T16:51:31;32.53;;;28.17;;
48241;SDS011;34041;51.812;4.622;2023-02-22T16:54:40;35.50;;;28.75;;
48241;SDS011;34041;51.812;4.622;2023-02-22T16:57:40;33.97;;;26.58;;
48241;SDS011;34041;51.812;4.622;2023-02-22T17:00:42;33.50;;;27.98;;
48241;SDS011;34041;51.812;4.622;2023-02-22T17:03:42;36.53;;;30.27;;
48241;SDS011;34041;51.812;4.622;2023-02-22T17:06:43;36.65;;;30.00;;
48241;SDS011;34041;51.812;4.622;2023-02-22T17:09:43;35.05;;;28.60;;
48241;SDS011;34041;51.812;4.622;2023-02-22T17:12:44;37.95;;;31.02;;
48241;SDS011;34041;51.812;4.622;2023-02-22T17:15:45;37.80;;;29.83;;
48241;SDS011;34041;51.812;4.622;2023-02-22T17:18:45;35.55;;;29.65;;
48241;SDS011;34041;51.812;4.622;2023-02-22T17:21:45;37.50;;;29.03;;
48241;SDS011;34041;51.812;4.622;2023-02-22T17:24:46;39.10;;;30.77;;
48241;SDS011;34041;51.812;4.622;2023-02-22T17:27:46;38.30;;;30.90;;
48241;SDS011;34041;51.812;4.622;2023-02-22T17:30:46;41.40;;;32.25;;
48241;SDS011;34041;51.812;4.622;2023-02-22T17:33:47;41.22;;;31.83;;
48241;SDS011;34041;51.812;4.622;2023-02-22T17:36:50;40.63;;;32.35;;
48241;SDS011;34041;51.812;4.622;2023-02-22T17:39:50;38.75;;;30.13;;
48241;SDS011;34041;51.812;4.622;2023-02-22T17:42:50;36.90;;;29.87;;
48241;SDS011;34041;51.812;4.622;2023-02-22T17:45:54;47.70;;;29.85;;
48241;SDS011;34041;51.812;4.622;2023-02-22T17:48:54;37.53;;;28.15;;
48241;SDS011;34041;51.812;4.622;2023-02-22T17:51:54;39.60;;;30.00;;
48241;SDS011;34041;51.812;4.622;2023-02-22T17:54:55;38.63;;;29.40;;
48241;SDS011;34041;51.812;4.622;2023-02-22T17:57:56;39.22;;;29.40;;
48241;SDS011;34041;51.812;4.622;2023-02-22T18:00:59;37.00;;;29.17;;
48241;SDS011;34041;51.812;4.622;2023-02-22T18:04:00;36.95;;;29.23;;
48241;SDS011;34041;51.812;4.622;2023-02-22T18:07:01;40.08;;;29.15;;
48241;SDS011;34041;51.812;4.622;2023-02-22T18:10:03;37.28;;;29.85;;
48241;SDS011;34041;51.812;4.622;2023-02-22T18:13:04;36.47;;;28.13;;
48241;SDS011;34041;51.812;4.622;2023-02-22T18:16:04;35.20;;;27.87;;
48241;SDS011;34041;51.812;4.622;2023-02-22T18:19:05;35.75;;;28.88;;
48241;SDS011;34041;51.812;4.622;2023-02-22T18:22:05;34.80;;;27.65;;
48241;SDS011;34041;51.812;4.622;2023-02-22T18:25:10;38.45;;;28.38;;
48241;SDS011;34041;51.812;4.622;2023-02-22T18:28:12;38.05;;;29.92;;
48241;SDS011;34041;51.812;4.622;2023-02-22T18:31:13;36.30;;;29.57;;
48241;SDS011;34041;51.812;4.622;2023-02-22T18:34:13;36.38;;;28.35;;
48241;SDS011;34041;51.812;4.622;2023-02-22T18:37:14;34.90;;;29.88;;
48241;SDS011;34041;51.812;4.622;2023-02-22T18:40:19;35.90;;;29.15;;
48241;SDS011;34041;51.812;4.622;2023-02-22T18:43:19;37.83;;;29.45;;
48241;SDS011;34041;51.812;4.622;2023-02-22T18:46:20;38.00;;;28.93;;
48241;SDS011;34041;51.812;4.622;2023-02-22T18:49:20;37.92;;;29.33;;
48241;SDS011;34041;51.812;4.622;2023-02-22T18:52:21;35.17;;;27.57;;
48241;SDS011;34041;51.812;4.622;2023-02-22T18:55:21;35.50;;;28.85;;
48241;SDS011;34041;51.812;4.622;2023-02-22T18:58:21;36.38;;;28.42;;
48241;SDS011;34041;51.812;4.622;2023-02-22T19:01:22;35.77;;;28.67;;
48241;SDS011;34041;51.812;4.622;2023-02-22T19:04:22;37.78;;;30.30;;
48241;SDS011;34041;51.812;4.622;2023-02-22T19:07:24;38.13;;;28.00;;
48241;SDS011;34041;51.812;4.622;2023-02-22T19:10:25;37.45;;;28.65;;
48241;SDS011;34041;51.812;4.622;2023-02-22T19:13:25;33.00;;;27.95;;
48241;SDS011;34041;51.812;4.622;2023-02-22T19:16:26;36.20;;;29.65;;
48241;SDS011;34041;51.812;4.622;2023-02-22T19:19:26;37.43;;;29.53;;
48241;SDS011;34041;51.812;4.622;2023-02-22T19:22:26;36.97;;;28.67;;
48241;SDS011;34041;51.812;4.622;2023-02-22T19:28:31;33.40;;;28.02;;
48241;SDS011;34041;51.812;4.622;2023-02-22T19:31:34;38.83;;;28.88;;
48241;SDS011;34041;51.812;4.622;2023-02-22T19:34:35;39.30;;;30.08;;
48241;SDS011;34041;51.812;4.622;2023-02-22T19:37:36;42.05;;;29.00;;
48241;SDS011;34041;51.812;4.622;2023-02-22T19:40:36;38.88;;;29.63;;
48241;SDS011;34041;51.812;4.622;2023-02-22T19:43:37;34.28;;;28.20;;
48241;SDS011;34041;51.812;4.622;2023-02-22T19:46:37;35.20;;;29.70;;
48241;SDS011;34041;51.812;4.622;2023-02-22T19:49:37;38.53;;;29.58;;
48241;SDS011;34041;51.812;4.622;2023-02-22T19:52:40;37.28;;;28.33;;
48241;SDS011;34041;51.812;4.622;2023-02-22T19:55:40;42.58;;;32.30;;
48241;SDS011;34041;51.812;4.622;2023-02-22T19:58:41;41.03;;;30.10;;
48241;SDS011;34041;51.812;4.622;2023-02-22T20:01:42;39.08;;;27.95;;
48241;SDS011;34041;51.812;4.622;2023-02-22T20:04:44;36.03;;;26.60;;